Joint Base Andrews Information

FAA: ADW - ICAO: KADW

Joint Base Andrews (Airport) Location

State Maryland
County Prince Georges
City Camp Springs
Joint Base Andrews (Airport) is 3 miles east of Camp Springs, MD.
Latitude 38-48-38.9720N
Longitude 076-52-01.3670W
Elevation 279ft

Joint Base Andrews METARs

METAR KADW 080656Z AUTO 00000KT 10SM CLR 01/M07 A3011 RMK AO2 SLP205 T00071071 $
Altimeter 30.11"
Temperature 0.7°C (33.3°F)
Wind 0° at 0KT
Clouds Skies are clear.
Visibility 10.0mi
Time observed: 2021-12-08T06:56:00Z

Joint Base Andrews (Airport) Details

Status Operational
Activation February 1944
Ownership Military - Air Force
Usage Private
Chart WASHINGTON
ATC on-site Yes
Beacon schedule sunset-sunrise
Beacon color clear green

Joint Base Andrews (Airport) Contacts

Owner USAF
Owner address ANDREWS AFB, WASHINGTON, DC 20331
Owner phone 301-981-1110
Manager ROBERT BUNTING
Manager address 9758 CAREY RD, BERLIN, MD 21811
Manager phone 410-641-2484

Joint Base Andrews Radio Frequencies

Joint Base Andrews (Airport) Radio Frequencies

UNICOM N/A
Common traffic advisory frequency (CTAF) N/A